sensor_id;sensor_type;location;lat;lon;timestamp;P1;durP1;ratioP1;P2;durP2;ratioP2
50122;SDS011;36021;48.670;6.184;2022-12-07T00:01:05;5.22;;;2.50;;
50122;SDS011;36021;48.670;6.184;2022-12-07T00:03:38;6.25;;;2.63;;
50122;SDS011;36021;48.670;6.184;2022-12-07T00:06:05;9.65;;;3.17;;
50122;SDS011;36021;48.670;6.184;2022-12-07T00:08:33;7.17;;;2.50;;
50122;SDS011;36021;48.670;6.184;2022-12-07T00:13:32;4.90;;;2.75;;
50122;SDS011;36021;48.670;6.184;2022-12-07T00:16:00;8.00;;;3.20;;
50122;SDS011;36021;48.670;6.184;2022-12-07T00:18:30;8.02;;;3.33;;
50122;SDS011;36021;48.670;6.184;2022-12-07T00:21:02;7.63;;;3.30;;
50122;SDS011;36021;48.670;6.184;2022-12-07T00:23:31;7.57;;;3.55;;
50122;SDS011;36021;48.670;6.184;2022-12-07T00:26:08;5.88;;;2.53;;
50122;SDS011;36021;48.670;6.184;2022-12-07T00:28:45;4.13;;;2.80;;
50122;SDS011;36021;48.670;6.184;2022-12-07T00:31:12;5.57;;;2.93;;
50122;SDS011;36021;48.670;6.184;2022-12-07T00:33:39;6.72;;;3.17;;
50122;SDS011;36021;48.670;6.184;2022-12-07T00:36:06;5.72;;;2.85;;
50122;SDS011;36021;48.670;6.184;2022-12-07T00:38:35;6.93;;;2.83;;
50122;SDS011;36021;48.670;6.184;2022-12-07T00:41:03;6.95;;;2.42;;
50122;SDS011;36021;48.670;6.184;2022-12-07T00:43:30;6.90;;;2.75;;
50122;SDS011;36021;48.670;6.184;2022-12-07T00:45:56;11.30;;;3.40;;
50122;SDS011;36021;48.670;6.184;2022-12-07T00:48:22;5.32;;;2.80;;
50122;SDS011;36021;48.670;6.184;2022-12-07T00:50:51;8.57;;;3.65;;
50122;SDS011;36021;48.670;6.184;2022-12-07T00:55:43;7.18;;;2.78;;
50122;SDS011;36021;48.670;6.184;2022-12-07T00:58:09;7.18;;;3.08;;
50122;SDS011;36021;48.670;6.184;2022-12-07T01:00:36;5.13;;;2.72;;
50122;SDS011;36021;48.670;6.184;2022-12-07T01:03:03;4.75;;;2.40;;
50122;SDS011;36021;48.670;6.184;2022-12-07T01:05:30;4.93;;;2.67;;
50122;SDS011;36021;48.670;6.184;2022-12-07T01:07:56;11.77;;;3.55;;
50122;SDS011;36021;48.670;6.184;2022-12-07T01:10:22;6.28;;;2.60;;
50122;SDS011;36021;48.670;6.184;2022-12-07T01:12:48;8.57;;;3.08;;
50122;SDS011;36021;48.670;6.184;2022-12-07T01:15:14;10.10;;;3.05;;
50122;SDS011;36021;48.670;6.184;2022-12-07T01:17:40;5.32;;;2.33;;
50122;SDS011;36021;48.670;6.184;2022-12-07T01:20:06;5.80;;;2.70;;
50122;SDS011;36021;48.670;6.184;2022-12-07T01:22:36;7.07;;;2.83;;
50122;SDS011;36021;48.670;6.184;2022-12-07T01:25:07;5.38;;;3.03;;
50122;SDS011;36021;48.670;6.184;2022-12-07T01:27:34;8.15;;;3.35;;
50122;SDS011;36021;48.670;6.184;2022-12-07T01:30:00;5.60;;;3.00;;
50122;SDS011;36021;48.670;6.184;2022-12-07T01:32:27;6.53;;;3.45;;
50122;SDS011;36021;48.670;6.184;2022-12-07T01:34:52;8.68;;;3.55;;
50122;SDS011;36021;48.670;6.184;2022-12-07T01:37:18;8.38;;;3.67;;
50122;SDS011;36021;48.670;6.184;2022-12-07T01:39:44;7.07;;;3.38;;
50122;SDS011;36021;48.670;6.184;2022-12-07T01:42:10;5.28;;;2.83;;
50122;SDS011;36021;48.670;6.184;2022-12-07T01:47:56;7.72;;;3.03;;
50122;SDS011;36021;48.670;6.184;2022-12-07T01:50:24;5.70;;;3.47;;
50122;SDS011;36021;48.670;6.184;2022-12-07T01:52:53;7.38;;;3.78;;
50122;SDS011;36021;48.670;6.184;2022-12-07T01:55:21;8.13;;;4.13;;
50122;SDS011;36021;48.670;6.184;2022-12-07T01:57:48;7.35;;;2.92;;
50122;SDS011;36021;48.670;6.184;2022-12-07T02:00:16;4.93;;;3.20;;
50122;SDS011;36021;48.670;6.184;2022-12-07T02:02:44;7.28;;;3.25;;
50122;SDS011;36021;48.670;6.184;2022-12-07T02:05:19;5.95;;;2.95;;
50122;SDS011;36021;48.670;6.184;2022-12-07T02:07:45;8.00;;;3.65;;
50122;SDS011;36021;48.670;6.184;2022-12-07T02:12:38;6.47;;;3.55;;
50122;SDS011;36021;48.670;6.184;2022-12-07T02:15:05;5.60;;;3.13;;
50122;SDS011;36021;48.670;6.184;2022-12-07T02:17:32;6.47;;;2.83;;
50122;SDS011;36021;48.670;6.184;2022-12-07T02:20:14;6.10;;;2.90;;
50122;SDS011;36021;48.670;6.184;2022-12-07T02:28:12;8.88;;;2.95;;
50122;SDS011;36021;48.670;6.184;2022-12-07T02:30:47;11.63;;;3.95;;
50122;SDS011;36021;48.670;6.184;2022-12-07T02:41:02;5.95;;;2.65;;
50122;SDS011;36021;48.670;6.184;2022-12-07T02:43:35;6.13;;;2.55;;
50122;SDS011;36021;48.670;6.184;2022-12-07T02:46:08;8.52;;;3.58;;
50122;SDS011;36021;48.670;6.184;2022-12-07T02:48:37;5.72;;;3.35;;
50122;SDS011;36021;48.670;6.184;2022-12-07T02:51:05;7.47;;;3.13;;
50122;SDS011;36021;48.670;6.184;2022-12-07T02:56:11;7.28;;;3.08;;
50122;SDS011;36021;48.670;6.184;2022-12-07T02:58:50;5.68;;;2.70;;
50122;SDS011;36021;48.670;6.184;2022-12-07T03:01:42;6.18;;;2.28;;
50122;SDS011;36021;48.670;6.184;2022-12-07T03:07:02;7.30;;;2.47;;
50122;SDS011;36021;48.670;6.184;2022-12-07T03:09:44;5.55;;;2.50;;
50122;SDS011;36021;48.670;6.184;2022-12-07T03:12:15;6.38;;;2.83;;
50122;SDS011;36021;48.670;6.184;2022-12-07T03:14:46;2.92;;;2.22;;
50122;SDS011;36021;48.670;6.184;2022-12-07T03:17:26;5.90;;;2.97;;
50122;SDS011;36021;48.670;6.184;2022-12-07T03:19:57;5.35;;;2.35;;
50122;SDS011;36021;48.670;6.184;2022-12-07T03:22:27;3.78;;;2.28;;
50122;SDS011;36021;48.670;6.184;2022-12-07T03:24:58;6.80;;;2.63;;
50122;SDS011;36021;48.670;6.184;2022-12-07T03:27:30;5.40;;;2.95;;
50122;SDS011;36021;48.670;6.184;2022-12-07T03:30:07;6.15;;;3.42;;
50122;SDS011;36021;48.670;6.184;2022-12-07T03:32:40;6.90;;;3.08;;
50122;SDS011;36021;48.670;6.184;2022-12-07T03:35:23;9.45;;;2.95;;
50122;SDS011;36021;48.670;6.184;2022-12-07T03:38:00;14.52;;;3.95;;
50122;SDS011;36021;48.670;6.184;2022-12-07T03:40:35;8.65;;;3.38;;
50122;SDS011;36021;48.670;6.184;2022-12-07T03:43:07;4.53;;;2.63;;
50122;SDS011;36021;48.670;6.184;2022-12-07T03:45:43;5.65;;;3.47;;
50122;SDS011;36021;48.670;6.184;2022-12-07T03:48:20;7.40;;;2.95;;
50122;SDS011;36021;48.670;6.184;2022-12-07T03:50:56;8.27;;;3.10;;
50122;SDS011;36021;48.670;6.184;2022-12-07T03:56:21;6.72;;;3.00;;
50122;SDS011;36021;48.670;6.184;2022-12-07T03:58:48;6.05;;;2.80;;
50122;SDS011;36021;48.670;6.184;2022-12-07T04:01:14;8.20;;;3.75;;
50122;SDS011;36021;48.670;6.184;2022-12-07T04:03:40;9.93;;;3.28;;
50122;SDS011;36021;48.670;6.184;2022-12-07T04:06:05;5.50;;;2.75;;
50122;SDS011;36021;48.670;6.184;2022-12-07T04:08:31;5.60;;;3.53;;
50122;SDS011;36021;48.670;6.184;2022-12-07T04:10:57;5.00;;;2.83;;
50122;SDS011;36021;48.670;6.184;2022-12-07T04:13:23;5.70;;;3.17;;
50122;SDS011;36021;48.670;6.184;2022-12-07T04:15:48;6.72;;;3.35;;
50122;SDS011;36021;48.670;6.184;2022-12-07T04:18:14;9.60;;;3.22;;
50122;SDS011;36021;48.670;6.184;2022-12-07T04:20:41;4.05;;;2.47;;
50122;SDS011;36021;48.670;6.184;2022-12-07T04:23:09;5.22;;;2.90;;
50122;SDS011;36021;48.670;6.184;2022-12-07T04:25:34;7.60;;;3.55;;
50122;SDS011;36021;48.670;6.184;2022-12-07T04:28:00;8.43;;;3.60;;
50122;SDS011;36021;48.670;6.184;2022-12-07T04:30:26;8.15;;;3.65;;
50122;SDS011;36021;48.670;6.184;2022-12-07T04:32:51;5.45;;;2.25;;
50122;SDS011;36021;48.670;6.184;2022-12-07T04:35:17;6.53;;;2.83;;
50122;SDS011;36021;48.670;6.184;2022-12-07T04:37:43;8.50;;;3.13;;
50122;SDS011;36021;48.670;6.184;2022-12-07T04:40:09;6.65;;;2.80;;
50122;SDS011;36021;48.670;6.184;2022-12-07T04:42:36;8.75;;;2.58;;
50122;SDS011;36021;48.670;6.184;2022-12-07T04:45:04;9.77;;;3.07;;
50122;SDS011;36021;48.670;6.184;2022-12-07T04:47:30;6.25;;;3.03;;
50122;SDS011;36021;48.670;6.184;2022-12-07T04:49:56;11.00;;;2.70;;
50122;SDS011;36021;48.670;6.184;2022-12-07T04:52:21;5.43;;;2.33;;
50122;SDS011;36021;48.670;6.184;2022-12-07T04:54:47;4.25;;;2.67;;
50122;SDS011;36021;48.670;6.184;2022-12-07T04:57:13;6.57;;;2.85;;
50122;SDS011;36021;48.670;6.184;2022-12-07T04:59:38;4.85;;;2.30;;
50122;SDS011;36021;48.670;6.184;2022-12-07T05:02:04;7.82;;;2.63;;
50122;SDS011;36021;48.670;6.184;2022-12-07T05:04:30;7.45;;;2.78;;
50122;SDS011;36021;48.670;6.184;2022-12-07T05:06:55;10.02;;;2.90;;
50122;SDS011;36021;48.670;6.184;2022-12-07T05:09:21;4.65;;;2.10;;
50122;SDS011;36021;48.670;6.184;2022-12-07T05:11:47;9.02;;;3.08;;
50122;SDS011;36021;48.670;6.184;2022-12-07T05:14:19;7.22;;;3.03;;
50122;SDS011;36021;48.670;6.184;2022-12-07T05:16:46;6.10;;;2.50;;
50122;SDS011;36021;48.670;6.184;2022-12-07T05:21:40;5.43;;;2.30;;
50122;SDS011;36021;48.670;6.184;2022-12-07T05:24:06;7.95;;;2.78;;
50122;SDS011;36021;48.670;6.184;2022-12-07T05:26:33;6.40;;;2.33;;
50122;SDS011;36021;48.670;6.184;2022-12-07T05:28:59;4.97;;;1.88;;
50122;SDS011;36021;48.670;6.184;2022-12-07T05:31:26;5.13;;;1.90;;
50122;SDS011;36021;48.670;6.184;2022-12-07T05:33:52;11.98;;;3.65;;
50122;SDS011;36021;48.670;6.184;2022-12-07T05:36:18;9.13;;;3.13;;
50122;SDS011;36021;48.670;6.184;2022-12-07T05:38:44;8.35;;;2.47;;
50122;SDS011;36021;48.670;6.184;2022-12-07T05:41:12;6.43;;;2.97;;
50122;SDS011;36021;48.670;6.184;2022-12-07T05:43:59;6.35;;;2.92;;
50122;SDS011;36021;48.670;6.184;2022-12-07T05:46:25;7.07;;;3.10;;
50122;SDS011;36021;48.670;6.184;2022-12-07T05:48:51;8.27;;;3.00;;
50122;SDS011;36021;48.670;6.184;2022-12-07T05:51:17;5.22;;;2.47;;
50122;SDS011;36021;48.670;6.184;2022-12-07T05:53:43;8.13;;;4.00;;
50122;SDS011;36021;48.670;6.184;2022-12-07T05:56:09;4.70;;;1.95;;
50122;SDS011;36021;48.670;6.184;2022-12-07T05:58:35;4.93;;;2.67;;
50122;SDS011;36021;48.670;6.184;2022-12-07T06:01:19;6.03;;;2.47;;
50122;SDS011;36021;48.670;6.184;2022-12-07T06:03:45;5.03;;;2.45;;
50122;SDS011;36021;48.670;6.184;2022-12-07T06:06:10;6.03;;;2.42;;
50122;SDS011;36021;48.670;6.184;2022-12-07T06:08:36;4.60;;;2.38;;
50122;SDS011;36021;48.670;6.184;2022-12-07T06:11:02;8.27;;;3.25;;
50122;SDS011;36021;48.670;6.184;2022-12-07T06:13:50;7.60;;;2.60;;
50122;SDS011;36021;48.670;6.184;2022-12-07T06:16:16;12.60;;;4.05;;
50122;SDS011;36021;48.670;6.184;2022-12-07T06:18:42;8.82;;;3.38;;
50122;SDS011;36021;48.670;6.184;2022-12-07T06:21:07;7.45;;;3.40;;
50122;SDS011;36021;48.670;6.184;2022-12-07T06:23:34;9.38;;;3.65;;
50122;SDS011;36021;48.670;6.184;2022-12-07T06:26:00;10.88;;;3.17;;
50122;SDS011;36021;48.670;6.184;2022-12-07T06:28:25;8.02;;;3.47;;
50122;SDS011;36021;48.670;6.184;2022-12-07T06:30:58;13.95;;;4.63;;
50122;SDS011;36021;48.670;6.184;2022-12-07T06:33:24;6.82;;;3.63;;
50122;SDS011;36021;48.670;6.184;2022-12-07T06:35:50;8.50;;;3.85;;
50122;SDS011;36021;48.670;6.184;2022-12-07T06:38:16;10.80;;;4.55;;
50122;SDS011;36021;48.670;6.184;2022-12-07T06:40:42;9.35;;;3.90;;
50122;SDS011;36021;48.670;6.184;2022-12-07T06:43:09;11.65;;;4.47;;
50122;SDS011;36021;48.670;6.184;2022-12-07T06:45:35;7.47;;;3.35;;
50122;SDS011;36021;48.670;6.184;2022-12-07T06:48:00;10.60;;;3.55;;
50122;SDS011;36021;48.670;6.184;2022-12-07T06:50:26;11.80;;;4.07;;
50122;SDS011;36021;48.670;6.184;2022-12-07T06:52:52;11.30;;;4.43;;
50122;SDS011;36021;48.670;6.184;2022-12-07T06:55:17;9.30;;;4.00;;
50122;SDS011;36021;48.670;6.184;2022-12-07T06:57:43;10.02;;;4.32;;
50122;SDS011;36021;48.670;6.184;2022-12-07T07:00:09;8.73;;;3.65;;
50122;SDS011;36021;48.670;6.184;2022-12-07T07:02:35;7.10;;;4.38;;
50122;SDS011;36021;48.670;6.184;2022-12-07T07:05:01;9.68;;;4.00;;
50122;SDS011;36021;48.670;6.184;2022-12-07T07:07:28;6.05;;;3.38;;
50122;SDS011;36021;48.670;6.184;2022-12-07T07:09:54;12.00;;;4.78;;
50122;SDS011;36021;48.670;6.184;2022-12-07T07:12:20;8.00;;;4.32;;
50122;SDS011;36021;48.670;6.184;2022-12-07T07:14:45;9.60;;;3.90;;
50122;SDS011;36021;48.670;6.184;2022-12-07T07:17:11;12.77;;;3.97;;
50122;SDS011;36021;48.670;6.184;2022-12-07T07:19:37;7.55;;;4.03;;
50122;SDS011;36021;48.670;6.184;2022-12-07T07:22:03;8.30;;;3.75;;
50122;SDS011;36021;48.670;6.184;2022-12-07T07:24:29;6.25;;;3.60;;
50122;SDS011;36021;48.670;6.184;2022-12-07T07:26:55;12.25;;;4.50;;
50122;SDS011;36021;48.670;6.184;2022-12-07T07:29:20;8.90;;;3.95;;
50122;SDS011;36021;48.670;6.184;2022-12-07T07:31:46;8.25;;;4.35;;
50122;SDS011;36021;48.670;6.184;2022-12-07T07:34:12;5.45;;;2.92;;
50122;SDS011;36021;48.670;6.184;2022-12-07T07:36:38;10.77;;;3.90;;
50122;SDS011;36021;48.670;6.184;2022-12-07T07:39:03;12.15;;;3.58;;
50122;SDS011;36021;48.670;6.184;2022-12-07T07:41:30;13.77;;;4.93;;
50122;SDS011;36021;48.670;6.184;2022-12-07T07:43:58;6.60;;;2.80;;
50122;SDS011;36021;48.670;6.184;2022-12-07T07:46:23;7.97;;;2.92;;
50122;SDS011;36021;48.670;6.184;2022-12-07T07:48:49;8.50;;;3.67;;
50122;SDS011;36021;48.670;6.184;2022-12-07T07:51:15;8.27;;;3.83;;
50122;SDS011;36021;48.670;6.184;2022-12-07T07:53:40;11.77;;;3.88;;
50122;SDS011;36021;48.670;6.184;2022-12-07T07:56:06;8.30;;;3.85;;
50122;SDS011;36021;48.670;6.184;2022-12-07T07:58:32;10.52;;;4.53;;
50122;SDS011;36021;48.670;6.184;2022-12-07T08:01:02;8.48;;;4.03;;
50122;SDS011;36021;48.670;6.184;2022-12-07T08:03:29;10.75;;;5.15;;
50122;SDS011;36021;48.670;6.184;2022-12-07T08:05:55;15.35;;;5.82;;
50122;SDS011;36021;48.670;6.184;2022-12-07T08:08:20;14.80;;;5.97;;
50122;SDS011;36021;48.670;6.184;2022-12-07T08:10:46;14.32;;;6.32;;
50122;SDS011;36021;48.670;6.184;2022-12-07T08:13:17;19.20;;;6.20;;
50122;SDS011;36021;48.670;6.184;2022-12-07T08:18:12;16.10;;;5.97;;
50122;SDS011;36021;48.670;6.184;2022-12-07T08:20:40;13.80;;;6.18;;
50122;SDS011;36021;48.670;6.184;2022-12-07T08:23:08;17.05;;;6.20;;
50122;SDS011;36021;48.670;6.184;2022-12-07T08:25:35;22.02;;;7.32;;
50122;SDS011;36021;48.670;6.184;2022-12-07T08:28:01;12.32;;;5.75;;
50122;SDS011;36021;48.670;6.184;2022-12-07T08:30:27;11.43;;;4.68;;
50122;SDS011;36021;48.670;6.184;2022-12-07T08:32:54;12.90;;;4.70;;
50122;SDS011;36021;48.670;6.184;2022-12-07T08:35:20;17.40;;;4.78;;
50122;SDS011;36021;48.670;6.184;2022-12-07T08:37:46;4.97;;;2.65;;
50122;SDS011;36021;48.670;6.184;2022-12-07T08:40:12;11.07;;;4.53;;
50122;SDS011;36021;48.670;6.184;2022-12-07T08:42:43;16.10;;;4.93;;
50122;SDS011;36021;48.670;6.184;2022-12-07T08:45:11;13.05;;;4.25;;
50122;SDS011;36021;48.670;6.184;2022-12-07T08:47:45;8.48;;;3.85;;
50122;SDS011;36021;48.670;6.184;2022-12-07T08:50:25;5.47;;;3.28;;
50122;SDS011;36021;48.670;6.184;2022-12-07T08:52:52;8.52;;;4.38;;
50122;SDS011;36021;48.670;6.184;2022-12-07T08:55:20;8.98;;;3.95;;
50122;SDS011;36021;48.670;6.184;2022-12-07T08:57:46;12.68;;;3.72;;
50122;SDS011;36021;48.670;6.184;2022-12-07T09:00:12;9.05;;;3.33;;
50122;SDS011;36021;48.670;6.184;2022-12-07T09:02:39;10.38;;;4.13;;
50122;SDS011;36021;48.670;6.184;2022-12-07T09:05:05;8.23;;;4.10;;
50122;SDS011;36021;48.670;6.184;2022-12-07T09:07:32;6.45;;;2.92;;
50122;SDS011;36021;48.670;6.184;2022-12-07T09:09:59;7.68;;;3.40;;
50122;SDS011;36021;48.670;6.184;2022-12-07T09:12:24;8.30;;;3.53;;
50122;SDS011;36021;48.670;6.184;2022-12-07T09:14:50;5.95;;;3.40;;
50122;SDS011;36021;48.670;6.184;2022-12-07T09:17:16;7.47;;;3.42;;
50122;SDS011;36021;48.670;6.184;2022-12-07T09:19:42;8.70;;;2.90;;
50122;SDS011;36021;48.670;6.184;2022-12-07T09:22:08;8.75;;;3.13;;
50122;SDS011;36021;48.670;6.184;2022-12-07T09:24:34;6.43;;;3.17;;
50122;SDS011;36021;48.670;6.184;2022-12-07T09:27:00;6.68;;;2.92;;
50122;SDS011;36021;48.670;6.184;2022-12-07T09:29:26;8.55;;;3.30;;
50122;SDS011;36021;48.670;6.184;2022-12-07T09:31:51;7.40;;;3.53;;
50122;SDS011;36021;48.670;6.184;2022-12-07T09:34:18;7.47;;;2.90;;
50122;SDS011;36021;48.670;6.184;2022-12-07T09:36:44;7.50;;;2.95;;
50122;SDS011;36021;48.670;6.184;2022-12-07T09:39:09;6.32;;;3.40;;
50122;SDS011;36021;48.670;6.184;2022-12-07T09:41:39;6.18;;;2.97;;
50122;SDS011;36021;48.670;6.184;2022-12-07T09:44:11;6.15;;;3.00;;
50122;SDS011;36021;48.670;6.184;2022-12-07T09:46:48;6.25;;;3.10;;
50122;SDS011;36021;48.670;6.184;2022-12-07T09:49:19;6.35;;;2.70;;
50122;SDS011;36021;48.670;6.184;2022-12-07T09:51:46;12.35;;;3.55;;
50122;SDS011;36021;48.670;6.184;2022-12-07T09:54:14;5.85;;;2.38;;
50122;SDS011;36021;48.670;6.184;2022-12-07T09:56:41;5.82;;;2.95;;
50122;SDS011;36021;48.670;6.184;2022-12-07T09:59:17;7.13;;;2.95;;
50122;SDS011;36021;48.670;6.184;2022-12-07T10:01:45;4.55;;;2.40;;
50122;SDS011;36021;48.670;6.184;2022-12-07T10:04:24;4.78;;;2.25;;
50122;SDS011;36021;48.670;6.184;2022-12-07T10:06:51;9.07;;;2.90;;
50122;SDS011;36021;48.670;6.184;2022-12-07T10:09:18;7.57;;;3.00;;
50122;SDS011;36021;48.670;6.184;2022-12-07T10:14:23;7.90;;;3.00;;
50122;SDS011;36021;48.670;6.184;2022-12-07T10:16:55;5.03;;;2.55;;
50122;SDS011;36021;48.670;6.184;2022-12-07T10:19:25;8.75;;;3.15;;
50122;SDS011;36021;48.670;6.184;2022-12-07T10:24:28;5.57;;;2.67;;
50122;SDS011;36021;48.670;6.184;2022-12-07T10:26:54;8.50;;;2.70;;
50122;SDS011;36021;48.670;6.184;2022-12-07T10:29:21;5.45;;;2.85;;
50122;SDS011;36021;48.670;6.184;2022-12-07T10:31:52;8.25;;;2.88;;
50122;SDS011;36021;48.670;6.184;2022-12-07T10:34:40;7.18;;;2.50;;
50122;SDS011;36021;48.670;6.184;2022-12-07T10:42:18;8.57;;;3.72;;
50122;SDS011;36021;48.670;6.184;2022-12-07T10:44:47;4.45;;;2.92;;
50122;SDS011;36021;48.670;6.184;2022-12-07T10:50:02;8.40;;;4.07;;
50122;SDS011;36021;48.670;6.184;2022-12-07T10:58:18;5.05;;;2.50;;
50122;SDS011;36021;48.670;6.184;2022-12-07T11:06:57;7.97;;;3.58;;
50122;SDS011;36021;48.670;6.184;2022-12-07T11:15:53;10.40;;;3.15;;
50122;SDS011;36021;48.670;6.184;2022-12-07T11:18:27;9.65;;;4.13;;
50122;SDS011;36021;48.670;6.184;2022-12-07T11:21:11;13.93;;;3.65;;
50122;SDS011;36021;48.670;6.184;2022-12-07T11:26:29;10.15;;;3.25;;
50122;SDS011;36021;48.670;6.184;2022-12-07T11:29:33;8.38;;;3.63;;
50122;SDS011;36021;48.670;6.184;2022-12-07T11:35:09;9.05;;;2.85;;
50122;SDS011;36021;48.670;6.184;2022-12-07T11:37:44;7.38;;;3.38;;
50122;SDS011;36021;48.670;6.184;2022-12-07T11:42:59;9.57;;;3.72;;
50122;SDS011;36021;48.670;6.184;2022-12-07T11:45:31;10.50;;;3.47;;
50122;SDS011;36021;48.670;6.184;2022-12-07T11:48:14;4.07;;;1.98;;
50122;SDS011;36021;48.670;6.184;2022-12-07T11:50:42;7.55;;;3.10;;
50122;SDS011;36021;48.670;6.184;2022-12-07T11:53:18;9.80;;;2.65;;
50122;SDS011;36021;48.670;6.184;2022-12-07T11:55:56;6.25;;;2.47;;
50122;SDS011;36021;48.670;6.184;2022-12-07T12:01:25;5.22;;;2.65;;
50122;SDS011;36021;48.670;6.184;2022-12-07T12:09:29;5.72;;;2.10;;
50122;SDS011;36021;48.670;6.184;2022-12-07T12:12:08;8.48;;;2.90;;
50122;SDS011;36021;48.670;6.184;2022-12-07T12:20:17;10.25;;;3.25;;
50122;SDS011;36021;48.670;6.184;2022-12-07T12:22:56;5.55;;;2.28;;
50122;SDS011;36021;48.670;6.184;2022-12-07T12:25:31;9.90;;;3.90;;
50122;SDS011;36021;48.670;6.184;2022-12-07T12:28:28;4.85;;;2.63;;
50122;SDS011;36021;48.670;6.184;2022-12-07T12:33:34;8.48;;;3.50;;
50122;SDS011;36021;48.670;6.184;2022-12-07T12:44:02;8.05;;;2.80;;
50122;SDS011;36021;48.670;6.184;2022-12-07T12:51:49;5.43;;;2.17;;
50122;SDS011;36021;48.670;6.184;2022-12-07T12:59:35;9.45;;;3.60;;
50122;SDS011;36021;48.670;6.184;2022-12-07T13:02:15;8.40;;;2.30;;
50122;SDS011;36021;48.670;6.184;2022-12-07T13:15:43;7.07;;;2.90;;
50122;SDS011;36021;48.670;6.184;2022-12-07T13:26:27;8.15;;;2.42;;
50122;SDS011;36021;48.670;6.184;2022-12-07T13:29:12;5.35;;;2.55;;
50122;SDS011;36021;48.670;6.184;2022-12-07T13:37:08;4.25;;;2.28;;
50122;SDS011;36021;48.670;6.184;2022-12-07T13:39:52;8.25;;;2.88;;
50122;SDS011;36021;48.670;6.184;2022-12-07T13:42:25;6.32;;;2.92;;
50122;SDS011;36021;48.670;6.184;2022-12-07T13:44:59;7.63;;;3.15;;
50122;SDS011;36021;48.670;6.184;2022-12-07T13:47:46;5.43;;;2.83;;
50122;SDS011;36021;48.670;6.184;2022-12-07T13:50:24;6.63;;;3.10;;
50122;SDS011;36021;48.670;6.184;2022-12-07T13:52:55;13.48;;;3.33;;
50122;SDS011;36021;48.670;6.184;2022-12-07T13:55:22;10.93;;;3.50;;
50122;SDS011;36021;48.670;6.184;2022-12-07T13:57:50;10.98;;;2.80;;
50122;SDS011;36021;48.670;6.184;2022-12-07T14:02:55;4.95;;;3.17;;
50122;SDS011;36021;48.670;6.184;2022-12-07T14:05:31;5.70;;;2.35;;
50122;SDS011;36021;48.670;6.184;2022-12-07T14:08:02;6.95;;;2.65;;
50122;SDS011;36021;48.670;6.184;2022-12-07T14:10:30;6.47;;;2.75;;
50122;SDS011;36021;48.670;6.184;2022-12-07T14:15:31;7.45;;;3.05;;
50122;SDS011;36021;48.670;6.184;2022-12-07T14:18:02;7.57;;;2.67;;
50122;SDS011;36021;48.670;6.184;2022-12-07T14:20:32;6.13;;;2.80;;
50122;SDS011;36021;48.670;6.184;2022-12-07T14:23:03;7.57;;;2.30;;
50122;SDS011;36021;48.670;6.184;2022-12-07T14:25:46;7.60;;;3.42;;
50122;SDS011;36021;48.670;6.184;2022-12-07T14:28:29;8.32;;;2.78;;
50122;SDS011;36021;48.670;6.184;2022-12-07T14:30:57;7.22;;;3.60;;
50122;SDS011;36021;48.670;6.184;2022-12-07T14:33:23;11.00;;;3.92;;
50122;SDS011;36021;48.670;6.184;2022-12-07T14:35:50;8.40;;;2.90;;
50122;SDS011;36021;48.670;6.184;2022-12-07T14:38:20;6.40;;;2.00;;
50122;SDS011;36021;48.670;6.184;2022-12-07T14:40:47;5.75;;;2.53;;
50122;SDS011;36021;48.670;6.184;2022-12-07T14:43:14;4.93;;;2.20;;
50122;SDS011;36021;48.670;6.184;2022-12-07T14:45:43;6.53;;;2.85;;
50122;SDS011;36021;48.670;6.184;2022-12-07T14:48:12;8.48;;;3.35;;
50122;SDS011;36021;48.670;6.184;2022-12-07T14:50:43;6.78;;;3.03;;
50122;SDS011;36021;48.670;6.184;2022-12-07T14:53:14;5.88;;;3.33;;
50122;SDS011;36021;48.670;6.184;2022-12-07T14:55:42;12.32;;;4.18;;
50122;SDS011;36021;48.670;6.184;2022-12-07T14:58:15;9.68;;;3.10;;
50122;SDS011;36021;48.670;6.184;2022-12-07T15:00:41;6.82;;;3.05;;
50122;SDS011;36021;48.670;6.184;2022-12-07T15:03:08;13.40;;;3.65;;
50122;SDS011;36021;48.670;6.184;2022-12-07T15:05:34;7.15;;;2.72;;
50122;SDS011;36021;48.670;6.184;2022-12-07T15:08:00;7.70;;;2.95;;
50122;SDS011;36021;48.670;6.184;2022-12-07T15:10:30;10.35;;;3.28;;
50122;SDS011;36021;48.670;6.184;2022-12-07T15:12:58;10.65;;;2.95;;
50122;SDS011;36021;48.670;6.184;2022-12-07T15:15:49;9.27;;;3.10;;
50122;SDS011;36021;48.670;6.184;2022-12-07T15:18:17;8.25;;;3.20;;
50122;SDS011;36021;48.670;6.184;2022-12-07T15:20:44;8.48;;;3.45;;
50122;SDS011;36021;48.670;6.184;2022-12-07T15:23:12;14.88;;;4.22;;
50122;SDS011;36021;48.670;6.184;2022-12-07T15:25:41;13.90;;;3.92;;
50122;SDS011;36021;48.670;6.184;2022-12-07T15:28:07;28.08;;;7.28;;
50122;SDS011;36021;48.670;6.184;2022-12-07T15:30:33;12.18;;;4.00;;
50122;SDS011;36021;48.670;6.184;2022-12-07T15:32:59;9.90;;;3.75;;
50122;SDS011;36021;48.670;6.184;2022-12-07T15:35:24;6.88;;;3.58;;
50122;SDS011;36021;48.670;6.184;2022-12-07T15:37:50;9.95;;;3.78;;
50122;SDS011;36021;48.670;6.184;2022-12-07T15:40:16;11.70;;;4.05;;
50122;SDS011;36021;48.670;6.184;2022-12-07T15:42:42;8.05;;;3.55;;
50122;SDS011;36021;48.670;6.184;2022-12-07T15:45:08;7.97;;;2.95;;
50122;SDS011;36021;48.670;6.184;2022-12-07T15:47:40;8.57;;;3.53;;
50122;SDS011;36021;48.670;6.184;2022-12-07T15:50:08;6.90;;;2.83;;
50122;SDS011;36021;48.670;6.184;2022-12-07T15:52:36;6.80;;;2.92;;
50122;SDS011;36021;48.670;6.184;2022-12-07T15:55:02;5.90;;;2.70;;
50122;SDS011;36021;48.670;6.184;2022-12-07T15:57:29;7.40;;;3.22;;
50122;SDS011;36021;48.670;6.184;2022-12-07T15:59:55;6.70;;;3.25;;
50122;SDS011;36021;48.670;6.184;2022-12-07T16:02:23;6.10;;;3.42;;
50122;SDS011;36021;48.670;6.184;2022-12-07T16:04:49;8.52;;;3.85;;
50122;SDS011;36021;48.670;6.184;2022-12-07T16:07:15;5.47;;;2.63;;
50122;SDS011;36021;48.670;6.184;2022-12-07T16:09:42;4.95;;;2.30;;
50122;SDS011;36021;48.670;6.184;2022-12-07T16:12:09;9.63;;;3.53;;
50122;SDS011;36021;48.670;6.184;2022-12-07T16:14:35;9.75;;;3.97;;
50122;SDS011;36021;48.670;6.184;2022-12-07T16:17:04;6.45;;;2.97;;
50122;SDS011;36021;48.670;6.184;2022-12-07T16:19:31;6.53;;;3.17;;
50122;SDS011;36021;48.670;6.184;2022-12-07T16:21:58;12.00;;;3.30;;
50122;SDS011;36021;48.670;6.184;2022-12-07T16:24:25;9.35;;;3.65;;
50122;SDS011;36021;48.670;6.184;2022-12-07T16:26:51;9.00;;;3.08;;
50122;SDS011;36021;48.670;6.184;2022-12-07T16:29:19;15.70;;;4.70;;
50122;SDS011;36021;48.670;6.184;2022-12-07T16:31:46;16.63;;;5.00;;
50122;SDS011;36021;48.670;6.184;2022-12-07T16:34:13;7.72;;;2.63;;
50122;SDS011;36021;48.670;6.184;2022-12-07T16:36:40;10.95;;;3.20;;
50122;SDS011;36021;48.670;6.184;2022-12-07T16:39:05;10.07;;;3.05;;
50122;SDS011;36021;48.670;6.184;2022-12-07T16:41:31;6.85;;;3.05;;
50122;SDS011;36021;48.670;6.184;2022-12-07T16:44:02;9.07;;;3.30;;
50122;SDS011;36021;48.670;6.184;2022-12-07T16:46:34;11.90;;;3.75;;
50122;SDS011;36021;48.670;6.184;2022-12-07T16:49:01;4.88;;;2.50;;
50122;SDS011;36021;48.670;6.184;2022-12-07T16:51:27;5.43;;;3.03;;
50122;SDS011;36021;48.670;6.184;2022-12-07T16:53:53;6.65;;;2.67;;
50122;SDS011;36021;48.670;6.184;2022-12-07T16:56:19;6.90;;;2.58;;
50122;SDS011;36021;48.670;6.184;2022-12-07T16:58:45;8.98;;;2.83;;
50122;SDS011;36021;48.670;6.184;2022-12-07T17:01:14;9.13;;;3.22;;
50122;SDS011;36021;48.670;6.184;2022-12-07T17:03:42;6.93;;;3.22;;
50122;SDS011;36021;48.670;6.184;2022-12-07T17:06:12;8.43;;;2.97;;
50122;SDS011;36021;48.670;6.184;2022-12-07T17:08:43;6.43;;;3.10;;
50122;SDS011;36021;48.670;6.184;2022-12-07T17:11:09;11.23;;;3.45;;
50122;SDS011;36021;48.670;6.184;2022-12-07T17:13:36;8.97;;;3.10;;
50122;SDS011;36021;48.670;6.184;2022-12-07T17:16:21;7.20;;;2.63;;
50122;SDS011;36021;48.670;6.184;2022-12-07T17:18:47;6.18;;;2.92;;